Terminal Aerodrome Forecast
Issued by NWS Springfield, MO

Home | Current Version | Previous Version | Text Only | Print | Product List | Glossary On
Versions: 1 2 3 4 5 6 7 8 9 10 11 12 13 14 15 16 17 18 19 20 21 22 23 24 25 26
000
FTUS43 KSGF 242300 RRA
TAFSGF
TAF
KSGF 242338Z 2500/2524 21008KT P6SM BKN200
     FM250400 22012KT P6SM OVC090 WS010/25040KT
     FM250800 24011KT P6SM VCSH SCT030 OVC070 WS020/30035KT
      TEMPO 2509/2513 -SHRA
     FM251300 27010KT P6SM OVC030
     FM251600 30018G28KT P6SM OVC025 PROB30 2518/2524 -SHRA=

USA.gov is the U.S. government's official web portal to all federal, state and local government web resources and services.